createdAt,value
2022-08-09T00:01:25.831Z,99.90
2022-08-09T00:04:00.542Z,99.90
2022-08-09T00:06:23.068Z,99.90
2022-08-09T00:08:33.112Z,99.90
2022-08-09T00:10:42.642Z,99.90
2022-08-09T00:12:53.131Z,99.90
2022-08-09T00:15:06.318Z,99.90
2022-08-09T00:18:07.491Z,99.90
2022-08-09T00:19:48.035Z,99.90
2022-08-09T00:21:57.105Z,99.90
2022-08-09T00:24:06.532Z,99.90
2022-08-09T00:26:18.669Z,99.90
2022-08-09T00:28:28.332Z,99.90
2022-08-09T00:30:37.051Z,99.90
2022-08-09T00:32:45.280Z,99.90
2022-08-09T00:34:55.015Z,99.90
2022-08-09T00:37:03.250Z,99.90
2022-08-09T00:40:09.099Z,99.90
2022-08-09T00:44:15.930Z,99.90
2022-08-09T00:44:20.189Z,99.90
2022-08-09T00:46:56.264Z,99.90
2022-08-09T00:49:04.000Z,99.90
2022-08-09T00:51:13.070Z,99.90
2022-08-09T00:53:24.207Z,99.90
2022-08-09T00:56:05.583Z,99.90
2022-08-09T00:58:01.183Z,99.90
2022-08-09T01:00:21.825Z,99.90
2022-08-09T01:02:32.527Z,99.90
2022-08-09T01:04:50.267Z,99.90
2022-08-09T01:07:05.564Z,99.90
2022-08-09T01:09:24.100Z,99.90
2022-08-09T01:11:55.639Z,99.90
2022-08-09T01:14:08.271Z,99.90
2022-08-09T01:16:25.473Z,99.90
2022-08-09T01:18:37.740Z,99.90
2022-08-09T01:20:51.286Z,99.90
2022-08-09T01:24:02.008Z,99.90
2022-08-09T01:26:10.876Z,99.90
2022-08-09T01:28:26.162Z,99.90
2022-08-09T01:30:51.861Z,99.90
2022-08-09T01:33:02.641Z,99.90
2022-08-09T01:35:28.382Z,99.90
2022-08-09T01:37:43.202Z,99.90
2022-08-09T01:40:11.088Z,99.90
2022-08-09T01:42:35.077Z,99.90
2022-08-09T01:44:46.262Z,99.90
2022-08-09T01:46:55.604Z,99.90
2022-08-09T01:49:10.285Z,99.90
2022-08-09T01:51:22.990Z,99.90
2022-08-09T01:53:41.049Z,99.90
2022-08-09T01:55:53.013Z,99.90
2022-08-09T01:58:04.858Z,99.90
2022-08-09T02:00:34.439Z,99.90
2022-08-09T02:02:48.747Z,99.90
2022-08-09T02:05:04.041Z,99.90
2022-08-09T02:08:41.106Z,99.90
2022-08-09T02:09:59.275Z,99.90
2022-08-09T02:12:10.553Z,99.90
2022-08-09T02:14:26.515Z,99.90
2022-08-09T02:16:53.074Z,99.90
2022-08-09T02:19:08.056Z,99.90
2022-08-09T02:21:22.045Z,99.90
2022-08-09T02:23:42.716Z,99.90
2022-08-09T02:25:55.867Z,99.90
2022-08-09T02:28:11.509Z,99.90
2022-08-09T02:30:26.631Z,99.90
2022-08-09T02:32:42.629Z,99.90
2022-08-09T02:34:57.731Z,99.90
2022-08-09T02:37:12.175Z,99.90
2022-08-09T02:39:33.927Z,99.90
2022-08-09T02:41:54.773Z,99.90
2022-08-09T02:44:13.632Z,99.90
2022-08-09T02:46:39.712Z,99.90
2022-08-09T02:48:51.591Z,99.90
2022-08-09T02:51:02.682Z,99.90
2022-08-09T02:53:26.598Z,99.90
2022-08-09T02:55:46.306Z,99.90
2022-08-09T02:58:32.018Z,99.90
2022-08-09T03:00:27.256Z,99.90
2022-08-09T03:02:46.271Z,99.90
2022-08-09T03:05:16.655Z,99.90
2022-08-09T03:07:26.143Z,99.90
2022-08-09T03:09:35.589Z,99.90
2022-08-09T03:12:06.113Z,99.90
2022-08-09T03:14:26.559Z,99.90
2022-08-09T03:16:41.690Z,99.90
2022-08-09T03:18:55.704Z,99.90
2022-08-09T03:21:07.835Z,99.90
2022-08-09T03:23:24.409Z,99.90
2022-08-09T03:25:58.221Z,99.90
2022-08-09T03:28:03.808Z,99.90
2022-08-09T03:30:13.701Z,99.90
2022-08-09T03:32:23.394Z,99.90
2022-08-09T03:34:34.376Z,99.90
2022-08-09T03:36:48.067Z,99.90
2022-08-09T03:39:08.012Z,99.90
2022-08-09T03:41:18.553Z,99.90
2022-08-09T03:43:32.014Z,99.90
2022-08-09T03:46:13.747Z,99.90
2022-08-09T03:48:09.493Z,99.90
2022-08-09T03:50:27.848Z,99.90
2022-08-09T03:52:43.622Z,99.90
2022-08-09T03:54:55.592Z,99.90
2022-08-09T03:57:18.681Z,99.90
2022-08-09T03:59:53.649Z,99.90
2022-08-09T04:01:59.473Z,99.90
2022-08-09T04:04:14.536Z,99.90
2022-08-09T04:06:23.551Z,99.90
2022-08-09T04:08:33.943Z,99.90
2022-08-09T04:10:42.305Z,99.90
2022-08-09T04:13:01.023Z,99.90
2022-08-09T04:15:29.572Z,99.90
2022-08-09T04:17:42.364Z,99.90
2022-08-09T04:19:56.247Z,99.90
2022-08-09T04:22:04.796Z,99.90
2022-08-09T04:24:21.570Z,99.90
2022-08-09T04:26:38.113Z,99.90
2022-08-09T04:28:46.922Z,99.90
2022-08-09T04:30:55.395Z,99.90
2022-08-09T04:33:03.792Z,99.90
2022-08-09T04:35:14.356Z,99.90
2022-08-09T04:37:23.852Z,99.90
2022-08-09T04:39:55.800Z,99.90
2022-08-09T04:42:04.307Z,99.90
2022-08-09T04:44:17.487Z,99.90
2022-08-09T04:46:57.262Z,99.90
2022-08-09T04:48:57.605Z,99.90
2022-08-09T04:51:06.799Z,99.90
2022-08-09T04:53:15.430Z,99.90
2022-08-09T04:55:25.594Z,99.90
2022-08-09T04:57:59.359Z,99.90
2022-08-09T05:00:05.090Z,99.90
2022-08-09T05:02:14.191Z,99.90
2022-08-09T05:04:22.878Z,99.90
2022-08-09T05:06:39.255Z,99.90
2022-08-09T05:08:52.545Z,99.90
2022-08-09T05:11:10.370Z,99.90
2022-08-09T05:13:19.473Z,99.90
2022-08-09T05:15:39.443Z,99.90
2022-08-09T05:18:39.658Z,99.90
2022-08-09T05:20:29.821Z,99.90
2022-08-09T05:23:54.028Z,99.90
2022-08-09T05:25:08.328Z,99.90
2022-08-09T05:27:19.227Z,99.90
2022-08-09T05:29:31.570Z,99.90
2022-08-09T05:31:46.790Z,99.90
2022-08-09T05:33:59.337Z,99.90
2022-08-09T05:36:07.905Z,99.90
2022-08-09T05:38:21.817Z,99.90
2022-08-09T05:40:30.949Z,99.90
2022-08-09T05:42:41.226Z,99.90
2022-08-09T05:44:51.345Z,99.90
2022-08-09T05:47:00.110Z,99.90
2022-08-09T05:49:33.806Z,99.90
2022-08-09T05:51:46.160Z,99.90
2022-08-09T05:53:57.395Z,99.90
2022-08-09T05:56:07.445Z,99.90
2022-08-09T05:58:19.589Z,99.90
2022-08-09T06:00:29.544Z,99.90
2022-08-09T06:02:38.312Z,99.90
2022-08-09T06:04:55.790Z,99.90
2022-08-09T06:07:04.988Z,99.90
2022-08-09T06:09:41.084Z,99.90
2022-08-09T06:11:57.832Z,99.90
2022-08-09T06:14:08.236Z,99.90
2022-08-09T06:16:16.586Z,99.90
2022-08-09T06:18:25.978Z,99.90
2022-08-09T06:20:34.744Z,99.90
2022-08-09T06:22:45.752Z,99.90
2022-08-09T06:24:54.272Z,99.90
2022-08-09T06:27:03.032Z,99.90
2022-08-09T06:29:14.916Z,99.90
2022-08-09T06:31:30.552Z,99.90
2022-08-09T06:33:42.078Z,99.90
2022-08-09T06:35:58.417Z,99.90
2022-08-09T06:38:07.505Z,99.90
2022-08-09T06:40:21.672Z,99.90
2022-08-09T06:42:33.652Z,99.90
2022-08-09T06:44:43.671Z,99.90
2022-08-09T06:46:55.300Z,99.90
2022-08-09T06:49:04.407Z,99.90
2022-08-09T06:51:14.857Z,99.90
2022-08-09T06:53:25.164Z,99.90
2022-08-09T06:55:34.297Z,99.90
2022-08-09T06:58:02.695Z,99.90
2022-08-09T07:00:49.455Z,99.90
2022-08-09T07:02:44.763Z,99.90
2022-08-09T07:04:55.283Z,99.90
2022-08-09T07:07:04.706Z,99.90
2022-08-09T07:09:53.591Z,99.90
2022-08-09T07:11:52.220Z,99.90
2022-08-09T07:14:04.830Z,99.90
2022-08-09T07:16:42.254Z,99.90
2022-08-09T07:18:47.324Z,99.90
2022-08-09T07:20:58.690Z,99.90
2022-08-09T07:23:19.531Z,99.90
2022-08-09T07:25:28.509Z,99.90
2022-08-09T07:27:42.891Z,99.90
2022-08-09T07:30:02.013Z,99.90
2022-08-09T07:32:11.965Z,99.90
2022-08-09T07:34:21.033Z,99.90
2022-08-09T07:36:32.392Z,99.90
2022-08-09T07:38:41.864Z,99.90
2022-08-09T07:41:00.860Z,99.90
2022-08-09T07:43:18.504Z,99.90
2022-08-09T07:45:38.148Z,99.90
2022-08-09T07:48:04.329Z,99.90
2022-08-09T07:50:13.293Z,99.90
2022-08-09T07:52:24.138Z,99.90
2022-08-09T07:54:32.606Z,99.90
2022-08-09T07:56:48.915Z,99.90
2022-08-09T07:58:59.555Z,99.90
2022-08-09T08:01:11.167Z,99.90
2022-08-09T08:03:21.583Z,99.90
2022-08-09T08:05:53.937Z,99.90
2022-08-09T08:08:59.894Z,99.40
2022-08-09T08:10:34.382Z,99.00
2022-08-09T08:12:45.651Z,99.20
2022-08-09T08:14:55.064Z,99.70
2022-08-09T08:17:08.095Z,97.60
2022-08-09T08:19:19.504Z,96.10
2022-08-09T08:21:30.466Z,96.30
2022-08-09T08:23:38.961Z,97.20
2022-08-09T08:25:54.327Z,95.40
2022-08-09T08:28:15.578Z,96.20
2022-08-09T08:30:26.972Z,96.20
2022-08-09T08:32:41.583Z,95.80
2022-08-09T08:35:04.043Z,96.00
2022-08-09T08:37:15.523Z,92.10
2022-08-09T08:39:24.724Z,92.60
2022-08-09T08:41:42.208Z,92.50
2022-08-09T08:44:03.542Z,91.90
2022-08-09T08:46:32.965Z,92.90
2022-08-09T08:48:51.634Z,92.70
2022-08-09T08:51:04.369Z,93.90
2022-08-09T08:53:21.614Z,93.90
2022-08-09T08:55:30.443Z,94.30
2022-08-09T08:57:40.829Z,92.70
2022-08-09T08:59:49.400Z,92.60
2022-08-09T09:02:03.317Z,92.40
2022-08-09T09:04:17.764Z,92.10
2022-08-09T09:06:38.805Z,91.90
2022-08-09T09:08:52.600Z,91.30
2022-08-09T09:11:05.466Z,91.10
2022-08-09T09:13:16.405Z,90.30
2022-08-09T09:15:28.851Z,91.10
2022-08-09T09:17:48.558Z,89.00
2022-08-09T09:20:03.470Z,87.70
2022-08-09T09:22:15.900Z,85.90
2022-08-09T09:24:29.494Z,86.90
2022-08-09T09:26:38.729Z,87.10
2022-08-09T09:29:03.876Z,86.30
2022-08-09T09:32:03.806Z,86.20
2022-08-09T09:33:56.897Z,83.60
2022-08-09T09:36:19.735Z,84.80
2022-08-09T09:38:44.256Z,86.70
2022-08-09T09:40:52.731Z,85.60
2022-08-09T09:43:01.050Z,82.20
2022-08-09T09:45:14.501Z,81.00
2022-08-09T09:47:47.595Z,80.00
2022-08-09T09:50:15.033Z,76.30
2022-08-09T09:52:52.553Z,79.60
2022-08-09T09:55:02.839Z,74.90
2022-08-09T09:58:01.173Z,72.80
2022-08-09T09:59:56.360Z,70.30
2022-08-09T10:02:06.639Z,70.80
2022-08-09T10:04:30.535Z,67.60
2022-08-09T10:06:42.747Z,62.10
2022-08-09T10:08:57.374Z,64.20
2022-08-09T10:11:59.173Z,67.40
2022-08-09T10:13:50.933Z,69.50
2022-08-09T10:16:55.801Z,71.00
2022-08-09T10:18:28.725Z,68.10
2022-08-09T10:20:45.040Z,70.50
2022-08-09T10:23:00.586Z,68.50
2022-08-09T10:25:14.464Z,69.50
2022-08-09T10:27:28.724Z,68.50
2022-08-09T10:30:43.697Z,67.00
2022-08-09T10:34:47.140Z,67.20
2022-08-09T10:36:57.218Z,69.20
2022-08-09T10:39:15.397Z,69.80
2022-08-09T10:41:24.551Z,68.10
2022-08-09T10:43:50.703Z,68.90
2022-08-09T10:46:25.424Z,68.70
2022-08-09T10:48:39.975Z,68.60
2022-08-09T10:51:09.522Z,69.70
2022-08-09T10:53:32.032Z,70.20
2022-08-09T10:55:55.198Z,70.70
2022-08-09T10:58:07.564Z,70.20
2022-08-09T11:00:41.807Z,72.30
2022-08-09T11:03:51.284Z,73.90
2022-08-09T11:06:23.680Z,72.30
2022-08-09T11:08:47.575Z,72.40
2022-08-09T11:11:00.983Z,71.60
2022-08-09T11:13:49.441Z,68.50
2022-08-09T11:15:50.779Z,69.70
2022-08-09T11:18:02.952Z,71.30
2022-08-09T11:20:22.435Z,69.80
2022-08-09T11:22:59.575Z,69.40
2022-08-09T11:25:10.590Z,69.10
2022-08-09T11:28:02.735Z,69.20
2022-08-09T11:30:04.997Z,67.80
2022-08-09T11:33:03.987Z,67.20
2022-08-09T11:35:18.902Z,65.30
2022-08-09T11:37:40.895Z,65.40
2022-08-09T11:40:06.278Z,68.60
2022-08-09T11:42:15.083Z,67.30
2022-08-09T11:44:44.777Z,68.60
2022-08-09T11:46:57.174Z,68.10
2022-08-09T11:49:07.512Z,68.40
2022-08-09T11:52:56.797Z,66.60
2022-08-09T11:54:28.965Z,67.10
2022-08-09T11:56:48.013Z,67.00
2022-08-09T11:58:59.136Z,66.80
2022-08-09T12:01:37.562Z,64.30
2022-08-09T12:03:56.925Z,63.60
2022-08-09T12:06:15.087Z,63.80
2022-08-09T12:08:25.881Z,63.70
2022-08-09T12:10:39.441Z,65.20
2022-08-09T12:12:49.361Z,64.60
2022-08-09T12:15:08.337Z,64.90
2022-08-09T12:17:27.878Z,66.30
2022-08-09T12:19:46.895Z,63.80
2022-08-09T12:22:04.934Z,64.60
2022-08-09T12:24:20.622Z,65.20
2022-08-09T12:26:40.268Z,66.90
2022-08-09T12:29:10.222Z,67.50
2022-08-09T12:31:58.070Z,68.10
2022-08-09T12:34:01.002Z,69.80
2022-08-09T12:36:27.667Z,69.20
2022-08-09T12:38:41.174Z,71.10
2022-08-09T12:40:52.059Z,71.20
2022-08-09T12:43:00.876Z,70.60
2022-08-09T12:45:34.266Z,70.90
2022-08-09T12:47:50.124Z,72.20
2022-08-09T12:50:16.640Z,72.60
2022-08-09T12:52:58.408Z,73.50
2022-08-09T12:56:11.746Z,71.50
2022-08-09T12:57:41.573Z,70.00
